sensor_id;sensor_type;location;lat;lon;timestamp;P1;durP1;ratioP1;P2;durP2;ratioP2
76701;SDS011;70097;44.536;0.146;2023-07-20T00:00:18;1.10;;;0.60;;
76701;SDS011;70097;44.536;0.146;2023-07-20T00:05:50;1.97;;;0.93;;
76701;SDS011;70097;44.536;0.146;2023-07-20T00:11:26;2.53;;;0.80;;
76701;SDS011;70097;44.536;0.146;2023-07-20T00:16:55;2.50;;;0.70;;
76701;SDS011;70097;44.536;0.146;2023-07-20T00:22:28;3.27;;;0.77;;
76701;SDS011;70097;44.536;0.146;2023-07-20T00:28:01;2.20;;;0.70;;
76701;SDS011;70097;44.536;0.146;2023-07-20T00:33:34;1.87;;;0.80;;
76701;SDS011;70097;44.536;0.146;2023-07-20T00:39:06;2.63;;;0.80;;
76701;SDS011;70097;44.536;0.146;2023-07-20T00:44:40;2.13;;;0.80;;
76701;SDS011;70097;44.536;0.146;2023-07-20T00:50:12;2.13;;;1.00;;
76701;SDS011;70097;44.536;0.146;2023-07-20T00:55:46;1.57;;;0.93;;
76701;SDS011;70097;44.536;0.146;2023-07-20T01:01:18;2.30;;;0.90;;
76701;SDS011;70097;44.536;0.146;2023-07-20T01:06:53;1.73;;;0.90;;
76701;SDS011;70097;44.536;0.146;2023-07-20T01:12:25;2.03;;;1.10;;
76701;SDS011;70097;44.536;0.146;2023-07-20T01:17:57;2.23;;;1.00;;
76701;SDS011;70097;44.536;0.146;2023-07-20T01:23:41;2.90;;;1.10;;
76701;SDS011;70097;44.536;0.146;2023-07-20T01:29:10;2.37;;;1.10;;
76701;SDS011;70097;44.536;0.146;2023-07-20T01:34:35;2.73;;;0.80;;
76701;SDS011;70097;44.536;0.146;2023-07-20T01:40:07;1.93;;;0.90;;
76701;SDS011;70097;44.536;0.146;2023-07-20T01:45:39;1.00;;;0.77;;
76701;SDS011;70097;44.536;0.146;2023-07-20T01:51:12;5.57;;;1.10;;
76701;SDS011;70097;44.536;0.146;2023-07-20T01:56:45;3.43;;;1.40;;
76701;SDS011;70097;44.536;0.146;2023-07-20T02:02:18;1.63;;;1.10;;
76701;SDS011;70097;44.536;0.146;2023-07-20T02:07:50;2.67;;;0.80;;
76701;SDS011;70097;44.536;0.146;2023-07-20T02:13:24;1.67;;;1.10;;
76701;SDS011;70097;44.536;0.146;2023-07-20T02:18:57;3.20;;;1.10;;
76701;SDS011;70097;44.536;0.146;2023-07-20T02:24:29;4.20;;;1.13;;
76701;SDS011;70097;44.536;0.146;2023-07-20T02:30:02;2.87;;;1.30;;
76701;SDS011;70097;44.536;0.146;2023-07-20T02:35:34;2.50;;;1.20;;
76701;SDS011;70097;44.536;0.146;2023-07-20T02:41:06;5.47;;;1.50;;
76701;SDS011;70097;44.536;0.146;2023-07-20T02:46:39;2.20;;;1.40;;
76701;SDS011;70097;44.536;0.146;2023-07-20T02:52:12;4.67;;;1.70;;
76701;SDS011;70097;44.536;0.146;2023-07-20T02:57:44;2.03;;;1.10;;
76701;SDS011;70097;44.536;0.146;2023-07-20T03:03:16;3.17;;;1.50;;
76701;SDS011;70097;44.536;0.146;2023-07-20T03:08:49;2.93;;;1.33;;
76701;SDS011;70097;44.536;0.146;2023-07-20T03:14:21;2.23;;;1.30;;
76701;SDS011;70097;44.536;0.146;2023-07-20T03:19:53;6.20;;;1.50;;
76701;SDS011;70097;44.536;0.146;2023-07-20T03:25:26;2.70;;;1.60;;
76701;SDS011;70097;44.536;0.146;2023-07-20T03:30:58;2.57;;;1.30;;
76701;SDS011;70097;44.536;0.146;2023-07-20T03:36:31;4.73;;;1.30;;
76701;SDS011;70097;44.536;0.146;2023-07-20T03:42:04;5.60;;;1.60;;
76701;SDS011;70097;44.536;0.146;2023-07-20T03:47:35;5.43;;;2.07;;
76701;SDS011;70097;44.536;0.146;2023-07-20T03:53:08;3.00;;;1.50;;
76701;SDS011;70097;44.536;0.146;2023-07-20T03:58:40;3.00;;;1.40;;
76701;SDS011;70097;44.536;0.146;2023-07-20T04:04:15;2.73;;;1.40;;
76701;SDS011;70097;44.536;0.146;2023-07-20T04:09:47;3.30;;;1.60;;
76701;SDS011;70097;44.536;0.146;2023-07-20T04:15:20;2.60;;;1.40;;
76701;SDS011;70097;44.536;0.146;2023-07-20T04:20:53;4.17;;;1.50;;
76701;SDS011;70097;44.536;0.146;2023-07-20T04:26:26;2.63;;;1.60;;
76701;SDS011;70097;44.536;0.146;2023-07-20T04:31:59;3.53;;;1.73;;
76701;SDS011;70097;44.536;0.146;2023-07-20T04:37:32;3.50;;;1.53;;
76701;SDS011;70097;44.536;0.146;2023-07-20T04:43:05;7.00;;;2.13;;
76701;SDS011;70097;44.536;0.146;2023-07-20T04:48:38;3.70;;;1.50;;
76701;SDS011;70097;44.536;0.146;2023-07-20T04:54:11;2.63;;;1.40;;
76701;SDS011;70097;44.536;0.146;2023-07-20T04:59:43;3.67;;;1.70;;
76701;SDS011;70097;44.536;0.146;2023-07-20T05:05:17;3.07;;;1.63;;
76701;SDS011;70097;44.536;0.146;2023-07-20T05:10:49;4.10;;;1.40;;
76701;SDS011;70097;44.536;0.146;2023-07-20T05:16:22;3.43;;;1.77;;
76701;SDS011;70097;44.536;0.146;2023-07-20T05:21:55;3.60;;;1.50;;
76701;SDS011;70097;44.536;0.146;2023-07-20T05:27:27;4.13;;;1.77;;
76701;SDS011;70097;44.536;0.146;2023-07-20T05:32:59;3.37;;;1.60;;
76701;SDS011;70097;44.536;0.146;2023-07-20T05:38:33;6.77;;;1.80;;
76701;SDS011;70097;44.536;0.146;2023-07-20T05:44:06;5.07;;;1.47;;
76701;SDS011;70097;44.536;0.146;2023-07-20T05:49:40;4.03;;;1.63;;
76701;SDS011;70097;44.536;0.146;2023-07-20T05:55:13;5.60;;;1.77;;
76701;SDS011;70097;44.536;0.146;2023-07-20T06:00:47;2.77;;;1.73;;
76701;SDS011;70097;44.536;0.146;2023-07-20T06:06:19;8.57;;;2.00;;
76701;SDS011;70097;44.536;0.146;2023-07-20T06:11:52;3.73;;;1.70;;
76701;SDS011;70097;44.536;0.146;2023-07-20T06:17:24;2.30;;;1.37;;
76701;SDS011;70097;44.536;0.146;2023-07-20T06:22:58;5.93;;;2.53;;
76701;SDS011;70097;44.536;0.146;2023-07-20T06:28:32;3.57;;;1.70;;
76701;SDS011;70097;44.536;0.146;2023-07-20T06:34:05;2.70;;;1.50;;
76701;SDS011;70097;44.536;0.146;2023-07-20T06:39:38;3.97;;;1.67;;
76701;SDS011;70097;44.536;0.146;2023-07-20T06:45:11;3.90;;;1.83;;
76701;SDS011;70097;44.536;0.146;2023-07-20T06:50:44;6.20;;;1.40;;
76701;SDS011;70097;44.536;0.146;2023-07-20T06:56:16;4.03;;;1.40;;
76701;SDS011;70097;44.536;0.146;2023-07-20T07:01:49;3.37;;;1.40;;
76701;SDS011;70097;44.536;0.146;2023-07-20T07:07:21;2.33;;;1.00;;
76701;SDS011;70097;44.536;0.146;2023-07-20T07:12:53;3.37;;;1.73;;
76701;SDS011;70097;44.536;0.146;2023-07-20T07:18:26;6.23;;;1.33;;
76701;SDS011;70097;44.536;0.146;2023-07-20T07:24:00;6.03;;;1.63;;
76701;SDS011;70097;44.536;0.146;2023-07-20T07:29:32;3.90;;;1.10;;
76701;SDS011;70097;44.536;0.146;2023-07-20T07:35:06;1.80;;;1.10;;
76701;SDS011;70097;44.536;0.146;2023-07-20T07:40:39;2.77;;;1.17;;
76701;SDS011;70097;44.536;0.146;2023-07-20T07:46:12;3.70;;;1.20;;
76701;SDS011;70097;44.536;0.146;2023-07-20T07:51:44;3.10;;;1.20;;
76701;SDS011;70097;44.536;0.146;2023-07-20T07:57:16;5.07;;;1.90;;
76701;SDS011;70097;44.536;0.146;2023-07-20T08:02:50;3.03;;;1.20;;
76701;SDS011;70097;44.536;0.146;2023-07-20T08:08:21;2.00;;;1.30;;
76701;SDS011;70097;44.536;0.146;2023-07-20T08:13:54;7.80;;;2.73;;
76701;SDS011;70097;44.536;0.146;2023-07-20T08:19:27;5.93;;;1.30;;
76701;SDS011;70097;44.536;0.146;2023-07-20T08:24:59;6.50;;;1.40;;
76701;SDS011;70097;44.536;0.146;2023-07-20T08:36:04;3.17;;;1.00;;
76701;SDS011;70097;44.536;0.146;2023-07-20T08:41:36;1.83;;;1.10;;
76701;SDS011;70097;44.536;0.146;2023-07-20T08:47:10;2.57;;;0.73;;
76701;SDS011;70097;44.536;0.146;2023-07-20T08:52:42;1.80;;;0.90;;
76701;SDS011;70097;44.536;0.146;2023-07-20T08:58:15;1.87;;;1.00;;
76701;SDS011;70097;44.536;0.146;2023-07-20T09:03:49;5.43;;;1.20;;
76701;SDS011;70097;44.536;0.146;2023-07-20T09:09:21;5.13;;;1.23;;
76701;SDS011;70097;44.536;0.146;2023-07-20T09:14:57;1.40;;;0.80;;
76701;SDS011;70097;44.536;0.146;2023-07-20T09:20:27;2.07;;;0.90;;
76701;SDS011;70097;44.536;0.146;2023-07-20T09:26:01;3.57;;;0.90;;
76701;SDS011;70097;44.536;0.146;2023-07-20T09:31:33;1.70;;;0.70;;
76701;SDS011;70097;44.536;0.146;2023-07-20T09:37:07;3.17;;;1.00;;
76701;SDS011;70097;44.536;0.146;2023-07-20T09:42:40;3.13;;;0.97;;
76701;SDS011;70097;44.536;0.146;2023-07-20T09:48:13;2.57;;;1.00;;
76701;SDS011;70097;44.536;0.146;2023-07-20T09:53:46;2.63;;;1.30;;
76701;SDS011;70097;44.536;0.146;2023-07-20T09:59:20;3.83;;;1.20;;
76701;SDS011;70097;44.536;0.146;2023-07-20T10:04:54;4.83;;;1.20;;
76701;SDS011;70097;44.536;0.146;2023-07-20T10:10:26;4.83;;;1.20;;
76701;SDS011;70097;44.536;0.146;2023-07-20T10:16:01;1.77;;;0.90;;
76701;SDS011;70097;44.536;0.146;2023-07-20T10:21:31;3.43;;;1.53;;
76701;SDS011;70097;44.536;0.146;2023-07-20T10:27:04;1.97;;;1.10;;
76701;SDS011;70097;44.536;0.146;2023-07-20T10:32:37;2.87;;;1.00;;
76701;SDS011;70097;44.536;0.146;2023-07-20T10:38:11;3.27;;;0.97;;
76701;SDS011;70097;44.536;0.146;2023-07-20T10:43:44;2.07;;;1.03;;
76701;SDS011;70097;44.536;0.146;2023-07-20T10:49:18;4.43;;;1.23;;
76701;SDS011;70097;44.536;0.146;2023-07-20T10:54:49;4.93;;;1.20;;
76701;SDS011;70097;44.536;0.146;2023-07-20T11:00:22;2.77;;;1.10;;
76701;SDS011;70097;44.536;0.146;2023-07-20T11:05:54;4.93;;;1.37;;
76701;SDS011;70097;44.536;0.146;2023-07-20T11:11:27;4.53;;;1.33;;
76701;SDS011;70097;44.536;0.146;2023-07-20T11:16:59;4.13;;;2.37;;
76701;SDS011;70097;44.536;0.146;2023-07-20T11:22:31;4.60;;;1.30;;
76701;SDS011;70097;44.536;0.146;2023-07-20T11:28:06;3.27;;;1.67;;
76701;SDS011;70097;44.536;0.146;2023-07-20T11:33:36;4.73;;;1.30;;
76701;SDS011;70097;44.536;0.146;2023-07-20T11:39:10;4.33;;;1.70;;
76701;SDS011;70097;44.536;0.146;2023-07-20T11:44:42;4.90;;;1.73;;
76701;SDS011;70097;44.536;0.146;2023-07-20T11:50:15;4.27;;;1.87;;
76701;SDS011;70097;44.536;0.146;2023-07-20T11:55:47;3.60;;;1.70;;
76701;SDS011;70097;44.536;0.146;2023-07-20T12:01:20;3.60;;;1.77;;
76701;SDS011;70097;44.536;0.146;2023-07-20T12:06:53;3.43;;;1.93;;
76701;SDS011;70097;44.536;0.146;2023-07-20T12:12:27;3.47;;;2.23;;
76701;SDS011;70097;44.536;0.146;2023-07-20T12:18:01;5.30;;;1.80;;
76701;SDS011;70097;44.536;0.146;2023-07-20T12:23:35;3.07;;;1.47;;
76701;SDS011;70097;44.536;0.146;2023-07-20T12:29:06;6.90;;;2.90;;
76701;SDS011;70097;44.536;0.146;2023-07-20T12:34:39;4.13;;;2.13;;
76701;SDS011;70097;44.536;0.146;2023-07-20T12:40:12;8.73;;;2.37;;
76701;SDS011;70097;44.536;0.146;2023-07-20T12:45:43;4.40;;;1.40;;
76701;SDS011;70097;44.536;0.146;2023-07-20T12:51:16;5.50;;;2.00;;
76701;SDS011;70097;44.536;0.146;2023-07-20T12:56:50;4.93;;;1.50;;
76701;SDS011;70097;44.536;0.146;2023-07-20T13:02:23;5.70;;;2.50;;
76701;SDS011;70097;44.536;0.146;2023-07-20T13:07:56;6.77;;;2.27;;
76701;SDS011;70097;44.536;0.146;2023-07-20T13:13:29;3.07;;;1.57;;
76701;SDS011;70097;44.536;0.146;2023-07-20T13:19:01;4.07;;;1.70;;
76701;SDS011;70097;44.536;0.146;2023-07-20T13:24:33;5.43;;;1.77;;
76701;SDS011;70097;44.536;0.146;2023-07-20T13:30:06;6.83;;;2.00;;
76701;SDS011;70097;44.536;0.146;2023-07-20T13:35:39;4.40;;;1.70;;
76701;SDS011;70097;44.536;0.146;2023-07-20T13:41:12;3.63;;;1.70;;
76701;SDS011;70097;44.536;0.146;2023-07-20T13:46:44;7.03;;;1.57;;
76701;SDS011;70097;44.536;0.146;2023-07-20T13:52:17;4.17;;;1.67;;
76701;SDS011;70097;44.536;0.146;2023-07-20T13:57:50;5.53;;;2.67;;
76701;SDS011;70097;44.536;0.146;2023-07-20T14:03:22;3.70;;;2.07;;
76701;SDS011;70097;44.536;0.146;2023-07-20T14:08:55;5.67;;;2.20;;
76701;SDS011;70097;44.536;0.146;2023-07-20T14:14:28;5.63;;;2.63;;
76701;SDS011;70097;44.536;0.146;2023-07-20T14:20:00;5.97;;;1.90;;
76701;SDS011;70097;44.536;0.146;2023-07-20T14:25:33;6.77;;;1.90;;
76701;SDS011;70097;44.536;0.146;2023-07-20T14:31:06;11.13;;;2.13;;
76701;SDS011;70097;44.536;0.146;2023-07-20T14:36:39;3.40;;;2.13;;
76701;SDS011;70097;44.536;0.146;2023-07-20T14:42:13;3.40;;;1.80;;
76701;SDS011;70097;44.536;0.146;2023-07-20T14:47:46;7.80;;;2.97;;
76701;SDS011;70097;44.536;0.146;2023-07-20T14:53:19;5.23;;;2.30;;
76701;SDS011;70097;44.536;0.146;2023-07-20T14:58:51;3.87;;;1.87;;
76701;SDS011;70097;44.536;0.146;2023-07-20T15:04:23;5.27;;;2.30;;
76701;SDS011;70097;44.536;0.146;2023-07-20T15:09:55;4.53;;;2.20;;
76701;SDS011;70097;44.536;0.146;2023-07-20T15:15:27;6.00;;;2.03;;
76701;SDS011;70097;44.536;0.146;2023-07-20T15:20:59;5.10;;;2.50;;
76701;SDS011;70097;44.536;0.146;2023-07-20T15:26:32;4.33;;;1.87;;
76701;SDS011;70097;44.536;0.146;2023-07-20T15:32:04;7.20;;;2.37;;
76701;SDS011;70097;44.536;0.146;2023-07-20T15:37:37;4.33;;;2.00;;
76701;SDS011;70097;44.536;0.146;2023-07-20T15:43:09;5.23;;;2.10;;
76701;SDS011;70097;44.536;0.146;2023-07-20T15:54:14;3.63;;;2.20;;
76701;SDS011;70097;44.536;0.146;2023-07-20T15:59:45;6.63;;;3.00;;
76701;SDS011;70097;44.536;0.146;2023-07-20T16:05:18;5.47;;;2.03;;
76701;SDS011;70097;44.536;0.146;2023-07-20T16:10:51;5.17;;;2.33;;
76701;SDS011;70097;44.536;0.146;2023-07-20T16:16:22;3.07;;;1.93;;
76701;SDS011;70097;44.536;0.146;2023-07-20T16:21:55;5.70;;;2.77;;
76701;SDS011;70097;44.536;0.146;2023-07-20T16:27:29;6.40;;;2.30;;
76701;SDS011;70097;44.536;0.146;2023-07-20T16:33:01;4.63;;;2.50;;
76701;SDS011;70097;44.536;0.146;2023-07-20T16:38:33;6.97;;;2.30;;
76701;SDS011;70097;44.536;0.146;2023-07-20T16:44:07;7.53;;;2.67;;
76701;SDS011;70097;44.536;0.146;2023-07-20T16:49:40;5.63;;;2.40;;
76701;SDS011;70097;44.536;0.146;2023-07-20T16:55:14;4.20;;;2.00;;
76701;SDS011;70097;44.536;0.146;2023-07-20T17:00:47;4.57;;;2.47;;
76701;SDS011;70097;44.536;0.146;2023-07-20T17:06:20;3.93;;;2.67;;
76701;SDS011;70097;44.536;0.146;2023-07-20T17:11:53;3.50;;;2.20;;
76701;SDS011;70097;44.536;0.146;2023-07-20T17:17:26;6.90;;;1.97;;
76701;SDS011;70097;44.536;0.146;2023-07-20T17:22:58;4.23;;;1.53;;
76701;SDS011;70097;44.536;0.146;2023-07-20T17:28:31;7.47;;;1.77;;
76701;SDS011;70097;44.536;0.146;2023-07-20T17:34:03;8.17;;;1.40;;
76701;SDS011;70097;44.536;0.146;2023-07-20T17:39:35;2.40;;;1.00;;
76701;SDS011;70097;44.536;0.146;2023-07-20T17:45:08;3.77;;;1.40;;
76701;SDS011;70097;44.536;0.146;2023-07-20T17:50:40;4.07;;;1.47;;
76701;SDS011;70097;44.536;0.146;2023-07-20T17:56:13;2.40;;;1.17;;
76701;SDS011;70097;44.536;0.146;2023-07-20T18:01:45;3.70;;;1.47;;
76701;SDS011;70097;44.536;0.146;2023-07-20T18:07:17;2.97;;;1.10;;
76701;SDS011;70097;44.536;0.146;2023-07-20T18:12:49;1.87;;;0.90;;
76701;SDS011;70097;44.536;0.146;2023-07-20T18:18:22;2.23;;;0.97;;
76701;SDS011;70097;44.536;0.146;2023-07-20T18:23:54;4.33;;;1.20;;
76701;SDS011;70097;44.536;0.146;2023-07-20T18:29:26;4.40;;;1.03;;
76701;SDS011;70097;44.536;0.146;2023-07-20T18:34:58;6.93;;;1.17;;
76701;SDS011;70097;44.536;0.146;2023-07-20T18:40:32;5.73;;;1.20;;
76701;SDS011;70097;44.536;0.146;2023-07-20T18:46:05;3.13;;;0.93;;
76701;SDS011;70097;44.536;0.146;2023-07-20T18:51:38;4.23;;;0.90;;
76701;SDS011;70097;44.536;0.146;2023-07-20T18:57:11;3.70;;;1.23;;
76701;SDS011;70097;44.536;0.146;2023-07-20T19:02:43;2.20;;;0.93;;
76701;SDS011;70097;44.536;0.146;2023-07-20T19:08:17;2.17;;;0.90;;
76701;SDS011;70097;44.536;0.146;2023-07-20T19:13:50;2.97;;;0.90;;
76701;SDS011;70097;44.536;0.146;2023-07-20T19:19:22;2.67;;;1.00;;
76701;SDS011;70097;44.536;0.146;2023-07-20T19:24:55;3.23;;;1.17;;
76701;SDS011;70097;44.536;0.146;2023-07-20T19:30:28;4.30;;;1.37;;
76701;SDS011;70097;44.536;0.146;2023-07-20T19:36:02;2.70;;;0.90;;
76701;SDS011;70097;44.536;0.146;2023-07-20T19:41:35;1.67;;;1.00;;
76701;SDS011;70097;44.536;0.146;2023-07-20T19:47:07;2.17;;;0.93;;
76701;SDS011;70097;44.536;0.146;2023-07-20T19:52:40;2.87;;;1.20;;
76701;SDS011;70097;44.536;0.146;2023-07-20T19:58:12;4.47;;;1.03;;
76701;SDS011;70097;44.536;0.146;2023-07-20T20:03:44;3.57;;;1.30;;
76701;SDS011;70097;44.536;0.146;2023-07-20T20:09:18;5.53;;;1.40;;
76701;SDS011;70097;44.536;0.146;2023-07-20T20:14:51;5.27;;;1.37;;
76701;SDS011;70097;44.536;0.146;2023-07-20T20:20:30;4.43;;;1.30;;
76701;SDS011;70097;44.536;0.146;2023-07-20T20:25:59;4.27;;;1.50;;
76701;SDS011;70097;44.536;0.146;2023-07-20T20:31:30;5.33;;;1.53;;
76701;SDS011;70097;44.536;0.146;2023-07-20T20:37:03;2.87;;;1.37;;
76701;SDS011;70097;44.536;0.146;2023-07-20T20:42:35;1.97;;;1.07;;
76701;SDS011;70097;44.536;0.146;2023-07-20T20:48:07;3.27;;;1.10;;
76701;SDS011;70097;44.536;0.146;2023-07-20T20:53:40;11.60;;;2.57;;
76701;SDS011;70097;44.536;0.146;2023-07-20T20:59:12;4.77;;;1.50;;
76701;SDS011;70097;44.536;0.146;2023-07-20T21:04:46;2.57;;;1.20;;
76701;SDS011;70097;44.536;0.146;2023-07-20T21:10:19;4.57;;;1.20;;
76701;SDS011;70097;44.536;0.146;2023-07-20T21:15:51;7.20;;;1.30;;
76701;SDS011;70097;44.536;0.146;2023-07-20T21:21:24;2.63;;;0.90;;
76701;SDS011;70097;44.536;0.146;2023-07-20T21:26:56;3.93;;;1.07;;
76701;SDS011;70097;44.536;0.146;2023-07-20T21:32:30;2.37;;;0.90;;
76701;SDS011;70097;44.536;0.146;2023-07-20T21:38:02;4.93;;;1.10;;
76701;SDS011;70097;44.536;0.146;2023-07-20T21:43:34;3.67;;;1.50;;
76701;SDS011;70097;44.536;0.146;2023-07-20T21:49:07;4.27;;;1.20;;
76701;SDS011;70097;44.536;0.146;2023-07-20T21:54:40;36.07;;;2.87;;
76701;SDS011;70097;44.536;0.146;2023-07-20T22:00:13;3.20;;;0.97;;
76701;SDS011;70097;44.536;0.146;2023-07-20T22:05:46;3.67;;;1.33;;
76701;SDS011;70097;44.536;0.146;2023-07-20T22:11:19;1.50;;;0.83;;
76701;SDS011;70097;44.536;0.146;2023-07-20T22:16:52;3.73;;;0.87;;
76701;SDS011;70097;44.536;0.146;2023-07-20T22:22:24;6.73;;;1.73;;
76701;SDS011;70097;44.536;0.146;2023-07-20T22:27:57;3.43;;;1.00;;
76701;SDS011;70097;44.536;0.146;2023-07-20T22:33:30;3.33;;;1.37;;
76701;SDS011;70097;44.536;0.146;2023-07-20T22:39:03;3.37;;;1.10;;
76701;SDS011;70097;44.536;0.146;2023-07-20T22:44:36;5.50;;;1.13;;
76701;SDS011;70097;44.536;0.146;2023-07-20T22:50:09;8.23;;;1.23;;
76701;SDS011;70097;44.536;0.146;2023-07-20T22:55:43;4.57;;;1.27;;
76701;SDS011;70097;44.536;0.146;2023-07-20T23:01:14;6.70;;;1.50;;
76701;SDS011;70097;44.536;0.146;2023-07-20T23:06:48;3.40;;;1.10;;
76701;SDS011;70097;44.536;0.146;2023-07-20T23:12:20;4.57;;;1.20;;
76701;SDS011;70097;44.536;0.146;2023-07-20T23:17:52;5.10;;;1.40;;
76701;SDS011;70097;44.536;0.146;2023-07-20T23:23:25;4.50;;;1.70;;
76701;SDS011;70097;44.536;0.146;2023-07-20T23:28:57;4.37;;;1.10;;
76701;SDS011;70097;44.536;0.146;2023-07-20T23:34:31;6.90;;;2.03;;
76701;SDS011;70097;44.536;0.146;2023-07-20T23:40:05;6.20;;;1.60;;
76701;SDS011;70097;44.536;0.146;2023-07-20T23:45:37;6.23;;;1.67;;
76701;SDS011;70097;44.536;0.146;2023-07-20T23:51:11;6.07;;;2.23;;
76701;SDS011;70097;44.536;0.146;2023-07-20T23:56:44;5.07;;;1.40;;
